createdAt,value
2018-12-30T00:00:54.956Z,102322.61
2018-12-30T00:03:23.231Z,102330.77
2018-12-30T00:05:52.111Z,102338.30
2018-12-30T00:08:20.681Z,102328.33
2018-12-30T00:10:49.002Z,102324.22
2018-12-30T00:13:17.385Z,102337.73
2018-12-30T00:15:45.682Z,102341.00
2018-12-30T00:18:13.946Z,102352.36
2018-12-30T00:20:42.246Z,102370.49
2018-12-30T00:23:10.549Z,102356.70
2018-12-30T00:25:38.912Z,102361.30
2018-12-30T00:28:07.207Z,102362.05
2018-12-30T00:30:35.498Z,102367.16
2018-12-30T00:33:03.827Z,102371.45
2018-12-30T00:35:32.225Z,102383.31
2018-12-30T00:38:02.136Z,102386.05
2018-12-30T00:40:30.391Z,102395.73
2018-12-30T00:42:58.763Z,102394.66
2018-12-30T00:45:27.238Z,102393.25
2018-12-30T00:47:55.763Z,102408.66
2018-12-30T00:50:24.068Z,102413.77
2018-12-30T00:52:52.723Z,102431.05
2018-12-30T00:55:20.985Z,102429.11
2018-12-30T00:57:49.262Z,102434.48
2018-12-30T01:00:17.574Z,102450.75
2018-12-30T01:02:45.830Z,102440.98
2018-12-30T01:05:15.031Z,102449.92
2018-12-30T01:07:43.470Z,102441.59
2018-12-30T01:10:11.802Z,102459.56
2018-12-30T01:12:40.174Z,102452.30
2018-12-30T01:15:08.507Z,102456.79
2018-12-30T01:17:36.814Z,102462.95
2018-12-30T01:20:05.084Z,102467.23
2018-12-30T01:22:33.416Z,102460.52
2018-12-30T01:25:01.824Z,102457.52
2018-12-30T01:27:30.087Z,102457.05
2018-12-30T01:29:58.408Z,102461.86
2018-12-30T01:32:26.684Z,102471.61
2018-12-30T01:34:55.485Z,102476.86
2018-12-30T01:37:23.783Z,102480.59
2018-12-30T01:39:52.096Z,102488.39
2018-12-30T01:42:20.348Z,102498.31
2018-12-30T01:44:48.746Z,102507.80
2018-12-30T01:47:17.068Z,102510.75
2018-12-30T01:49:45.497Z,102526.06
2018-12-30T01:52:13.820Z,102519.88
2018-12-30T01:54:42.078Z,102521.84
2018-12-30T01:57:10.336Z,102532.69
2018-12-30T01:59:38.797Z,102531.59
2018-12-30T02:02:07.057Z,102531.08
2018-12-30T02:04:35.371Z,102530.25
2018-12-30T02:07:03.641Z,102528.59
2018-12-30T02:09:31.938Z,102529.36
2018-12-30T02:12:00.820Z,102532.94
2018-12-30T02:14:29.087Z,102536.91
2018-12-30T02:16:57.521Z,102547.58
2018-12-30T02:19:25.776Z,102552.60
2018-12-30T02:21:54.059Z,102563.40
2018-12-30T02:24:22.460Z,102558.50
2018-12-30T02:26:50.707Z,102553.36
2018-12-30T02:29:19.221Z,102546.27
2018-12-30T02:31:47.511Z,102555.17
2018-12-30T02:34:15.899Z,102559.67
2018-12-30T02:36:44.301Z,102570.77
2018-12-30T02:39:12.568Z,102580.41
2018-12-30T02:41:41.888Z,102577.58
2018-12-30T02:44:10.155Z,102597.27
2018-12-30T02:46:38.438Z,102600.17
2018-12-30T02:49:06.746Z,102605.06
2018-12-30T02:51:34.999Z,102607.70
2018-12-30T02:54:03.742Z,102600.67
2018-12-30T02:56:32.058Z,102593.33
2018-12-30T02:59:00.388Z,102592.58
2018-12-30T03:01:28.674Z,102598.56
2018-12-30T03:03:56.939Z,102596.67
2018-12-30T03:06:25.398Z,102590.17
2018-12-30T03:08:53.659Z,102592.03
2018-12-30T03:11:22.099Z,102599.07
2018-12-30T03:13:50.370Z,102597.78
2018-12-30T03:16:18.607Z,102592.92
2018-12-30T03:18:47.489Z,102596.97
2018-12-30T03:21:15.752Z,102602.66
2018-12-30T03:23:44.014Z,102603.96
2018-12-30T03:26:12.343Z,102605.02
2018-12-30T03:28:40.589Z,102604.26
2018-12-30T03:31:09.014Z,102607.12
2018-12-30T03:33:37.268Z,102607.52
2018-12-30T03:36:05.520Z,102601.88
2018-12-30T03:38:33.851Z,102611.02
2018-12-30T03:41:02.104Z,102605.63
2018-12-30T03:43:30.392Z,102616.15
2018-12-30T03:45:58.696Z,102623.20
2018-12-30T03:48:26.950Z,102634.54
2018-12-30T03:50:55.346Z,102626.94
2018-12-30T03:53:23.596Z,102623.14
2018-12-30T03:55:51.986Z,102624.50
2018-12-30T03:58:20.274Z,102627.45
2018-12-30T04:00:48.572Z,102632.84
2018-12-30T04:03:16.880Z,102635.49
2018-12-30T04:05:45.146Z,102640.89
2018-12-30T04:08:13.547Z,102638.24
2018-12-30T04:10:41.855Z,102642.28
2018-12-30T04:13:10.101Z,102647.44
2018-12-30T04:15:38.415Z,102650.13
2018-12-30T04:18:06.675Z,102649.98
2018-12-30T04:20:34.936Z,102658.13
2018-12-30T04:23:03.245Z,102661.77
2018-12-30T04:25:31.496Z,102638.58
2018-12-30T04:27:59.747Z,102641.48
2018-12-30T04:30:28.036Z,102638.05
2018-12-30T04:32:56.327Z,102633.19
2018-12-30T04:35:24.609Z,102664.27
2018-12-30T04:37:53.052Z,102655.62
2018-12-30T04:40:21.343Z,102656.22
2018-12-30T04:42:49.588Z,102658.97
2018-12-30T04:45:17.892Z,102661.38
2018-12-30T04:47:46.173Z,102672.67
2018-12-30T04:50:14.423Z,102676.27
2018-12-30T04:52:42.796Z,102678.13
2018-12-30T04:55:11.075Z,102682.12
2018-12-30T04:57:39.394Z,102693.51
2018-12-30T05:00:07.723Z,102689.70
2018-12-30T05:02:35.973Z,102694.24
2018-12-30T05:05:05.158Z,102693.41
2018-12-30T05:07:33.408Z,102693.75
2018-12-30T05:10:01.698Z,102691.30
2018-12-30T05:12:29.994Z,102692.91
2018-12-30T05:14:58.247Z,102696.45
2018-12-30T05:17:26.566Z,102701.60
2018-12-30T05:19:54.861Z,102706.19
2018-12-30T05:22:23.181Z,102699.71
2018-12-30T05:24:51.428Z,102702.66
2018-12-30T05:27:19.743Z,102698.31
2018-12-30T05:29:47.995Z,102698.61
2018-12-30T05:32:16.266Z,102701.60
2018-12-30T05:34:44.574Z,102701.84
2018-12-30T05:37:12.849Z,102717.50
2018-12-30T05:39:41.126Z,102721.23
2018-12-30T05:42:09.426Z,102724.49
2018-12-30T05:44:37.848Z,102730.98
2018-12-30T05:47:07.670Z,102740.12
2018-12-30T05:49:35.923Z,102741.63
2018-12-30T05:52:04.313Z,102737.27
2018-12-30T05:54:32.580Z,102750.75
2018-12-30T05:57:00.909Z,102754.26
2018-12-30T05:59:29.189Z,102763.22
2018-12-30T06:01:57.517Z,102767.80
2018-12-30T06:04:25.797Z,102775.60
2018-12-30T06:06:54.133Z,102775.09
2018-12-30T06:09:22.562Z,102776.95
2018-12-30T06:11:50.850Z,102772.39
2018-12-30T06:14:19.146Z,102788.28
2018-12-30T06:16:47.755Z,102785.09
2018-12-30T06:19:16.057Z,102786.20
2018-12-30T06:21:44.308Z,102791.39
2018-12-30T06:24:12.712Z,102805.45
2018-12-30T06:26:41.486Z,102802.50
2018-12-30T06:29:09.785Z,102803.05
2018-12-30T06:31:38.067Z,102800.41
2018-12-30T06:34:06.357Z,102800.97
2018-12-30T06:36:34.746Z,102801.80
2018-12-30T06:39:03.885Z,102804.20
2018-12-30T06:41:32.150Z,102804.56
2018-12-30T06:44:00.479Z,102798.32
2018-12-30T06:46:28.726Z,102799.11
2018-12-30T06:48:57.022Z,102808.31
2018-12-30T06:51:25.282Z,102801.86
2018-12-30T06:53:53.590Z,102807.36
2018-12-30T06:56:21.867Z,102808.72
2018-12-30T06:58:50.157Z,102801.42
2018-12-30T07:01:18.436Z,102813.08
2018-12-30T07:03:46.734Z,102821.42
2018-12-30T07:06:15.009Z,102827.42
2018-12-30T07:08:43.939Z,102825.23
2018-12-30T07:11:12.503Z,102824.72
2018-12-30T07:13:40.832Z,102826.58
2018-12-30T07:16:09.102Z,102822.83
2018-12-30T07:18:37.418Z,102836.08
2018-12-30T07:21:05.710Z,102825.03
2018-12-30T07:23:33.972Z,102835.03
2018-12-30T07:26:03.943Z,102831.23
2018-12-30T07:28:32.436Z,102834.22
2018-12-30T07:31:00.730Z,102828.28
2018-12-30T07:33:29.019Z,102831.78
2018-12-30T07:35:57.309Z,102832.33
2018-12-30T07:38:25.568Z,102823.98
2018-12-30T07:40:53.907Z,102825.88
2018-12-30T07:43:22.284Z,102818.78
2018-12-30T07:45:50.563Z,102814.48
2018-12-30T07:48:18.830Z,102835.03
2018-12-30T07:50:47.109Z,102833.08
2018-12-30T07:53:15.371Z,102826.34
2018-12-30T07:55:43.769Z,102815.27
2018-12-30T07:58:12.050Z,102823.07
2018-12-30T08:00:40.304Z,102821.97
2018-12-30T08:03:08.616Z,102821.67
2018-12-30T08:05:36.958Z,102811.17
2018-12-30T08:08:05.223Z,102810.82
2018-12-30T08:10:33.529Z,102821.91
2018-12-30T08:13:01.772Z,102804.07
2018-12-30T08:15:30.066Z,102805.96
2018-12-30T08:17:58.449Z,102806.72
2018-12-30T08:20:26.691Z,102805.56
2018-12-30T08:22:54.953Z,102802.61
2018-12-30T08:25:24.859Z,102820.70
2018-12-30T08:27:53.118Z,102815.55
2018-12-30T08:30:21.669Z,102817.65
2018-12-30T08:32:49.918Z,102816.54
2018-12-30T08:35:18.206Z,102815.49
2018-12-30T08:37:46.464Z,102811.14
2018-12-30T08:40:14.869Z,102830.33
2018-12-30T08:42:43.205Z,102833.24
2018-12-30T08:45:11.525Z,102831.38
2018-12-30T08:47:39.799Z,102823.29
2018-12-30T08:50:08.059Z,102835.13
2018-12-30T08:52:36.374Z,102837.29
2018-12-30T08:55:04.760Z,102837.53
2018-12-30T08:57:33.062Z,102848.09
2018-12-30T09:00:02.049Z,102841.34
2018-12-30T09:02:30.611Z,102854.83
2018-12-30T09:04:58.903Z,102848.98
2018-12-30T09:07:27.155Z,102855.48
2018-12-30T09:09:56.159Z,102860.88
2018-12-30T09:12:24.437Z,102852.19
2018-12-30T09:14:52.685Z,102848.98
2018-12-30T09:17:21.128Z,102852.48
2018-12-30T09:19:49.389Z,102853.34
2018-12-30T09:22:17.697Z,102862.05
2018-12-30T09:24:46.146Z,102859.64
2018-12-30T09:27:14.454Z,102860.51
2018-12-30T09:29:42.734Z,102864.08
2018-12-30T09:32:11.022Z,102868.42
2018-12-30T09:34:39.318Z,102875.22
2018-12-30T09:37:07.704Z,102879.88
2018-12-30T09:39:36.017Z,102873.93
2018-12-30T09:42:04.268Z,102874.98
2018-12-30T09:44:32.546Z,102879.69
2018-12-30T09:47:00.869Z,102875.62
2018-12-30T09:49:29.196Z,102872.45
2018-12-30T09:51:58.754Z,102873.84
2018-12-30T09:54:27.252Z,102870.39
2018-12-30T09:56:55.644Z,102866.10
2018-12-30T09:59:23.894Z,102866.91
2018-12-30T10:01:52.157Z,102868.02
2018-12-30T10:04:20.423Z,102866.42
2018-12-30T10:06:48.761Z,102873.17
2018-12-30T10:09:17.148Z,102878.68
2018-12-30T10:11:45.408Z,102875.55
2018-12-30T10:14:13.667Z,102872.61
2018-12-30T10:16:42.089Z,102866.77
2018-12-30T10:19:10.390Z,102871.63
2018-12-30T10:21:38.672Z,102877.67
2018-12-30T10:24:06.992Z,102877.83
2018-12-30T10:26:35.321Z,102887.59
2018-12-30T10:29:03.659Z,102887.95
2018-12-30T10:31:31.897Z,102874.48
2018-12-30T10:34:00.197Z,102870.78
2018-12-30T10:36:28.506Z,102872.45
2018-12-30T10:38:56.789Z,102874.39
2018-12-30T10:41:25.198Z,102876.84
2018-12-30T10:43:53.508Z,102877.09
2018-12-30T10:46:21.781Z,102876.33
2018-12-30T10:48:51.040Z,102870.38
2018-12-30T10:51:19.339Z,102873.38
2018-12-30T10:53:47.581Z,102874.83
2018-12-30T10:56:15.864Z,102874.63
2018-12-30T10:58:44.743Z,102875.14
2018-12-30T11:01:13.070Z,102874.58
2018-12-30T11:03:42.879Z,102865.63
2018-12-30T11:06:11.159Z,102864.28
2018-12-30T11:08:39.359Z,102875.34
2018-12-30T11:11:07.964Z,102877.28
2018-12-30T11:13:36.273Z,102868.63
2018-12-30T11:16:04.921Z,102862.47
2018-12-30T11:18:33.199Z,102854.56
2018-12-30T11:21:01.635Z,102852.66
2018-12-30T11:23:29.934Z,102844.85
2018-12-30T11:25:58.197Z,102846.00
2018-12-30T11:28:26.522Z,102833.59
2018-12-30T11:30:55.618Z,102839.09
2018-12-30T11:33:23.908Z,102842.84
2018-12-30T11:35:52.156Z,102847.20
2018-12-30T11:38:20.491Z,102850.70
2018-12-30T11:40:48.755Z,102852.40
2018-12-30T11:43:17.187Z,102852.35
2018-12-30T11:45:45.441Z,102852.98
2018-12-30T11:48:13.762Z,102854.14
2018-12-30T11:50:42.151Z,102847.68
2018-12-30T11:53:10.463Z,102854.44
2018-12-30T11:55:38.709Z,102858.50
2018-12-30T11:58:06.987Z,102844.76
2018-12-30T12:00:35.257Z,102843.11
2018-12-30T12:03:03.533Z,102840.45
2018-12-30T12:05:31.787Z,102833.70
2018-12-30T12:08:00.139Z,102846.13
2018-12-30T12:10:28.441Z,102838.56
2018-12-30T12:12:56.718Z,102842.86
2018-12-30T12:15:25.001Z,102839.61
2018-12-30T12:17:53.249Z,102839.10
2018-12-30T12:20:21.564Z,102840.20
2018-12-30T12:22:49.866Z,102840.25
2018-12-30T12:25:18.174Z,102843.51
2018-12-30T12:27:46.487Z,102843.47
2018-12-30T12:30:14.777Z,102835.09
2018-12-30T12:32:44.678Z,102830.57
2018-12-30T12:35:13.855Z,102830.87
2018-12-30T12:37:42.174Z,102831.09
2018-12-30T12:40:10.464Z,102834.42
2018-12-30T12:42:38.837Z,102826.60
2018-12-30T12:45:07.085Z,102831.72
2018-12-30T12:47:35.494Z,102837.68
2018-12-30T12:50:03.809Z,102841.52
2018-12-30T12:52:32.058Z,102840.20
2018-12-30T12:55:00.357Z,102831.00
2018-12-30T12:57:28.630Z,102826.47
2018-12-30T12:59:56.951Z,102832.98
2018-12-30T13:02:25.275Z,102824.58
2018-12-30T13:04:53.597Z,102831.09
2018-12-30T13:07:21.856Z,102832.52
2018-12-30T13:09:50.220Z,102829.05
2018-12-30T13:12:18.470Z,102835.27
2018-12-30T13:14:46.745Z,102839.91
2018-12-30T13:17:15.036Z,102835.59
2018-12-30T13:19:44.135Z,102840.97
2018-12-30T13:22:12.386Z,102844.01
2018-12-30T13:24:40.707Z,102854.25
2018-12-30T13:27:09.020Z,102850.44
2018-12-30T13:29:37.997Z,102859.06
2018-12-30T13:32:06.250Z,102855.55
2018-12-30T13:34:34.676Z,102857.67
2018-12-30T13:37:02.961Z,102845.75
2018-12-30T13:39:31.269Z,102850.65
2018-12-30T13:41:59.566Z,102842.23
2018-12-30T13:44:27.875Z,102839.28
2018-12-30T13:46:56.126Z,102829.09
2018-12-30T13:49:24.499Z,102831.28
2018-12-30T13:51:53.335Z,102827.48
2018-12-30T13:54:21.730Z,102839.73
2018-12-30T13:56:49.984Z,102841.31
2018-12-30T13:59:18.567Z,102848.62
2018-12-30T14:01:46.869Z,102844.01
2018-12-30T14:04:15.100Z,102836.16
2018-12-30T14:06:43.379Z,102834.03
2018-12-30T14:09:11.662Z,102828.88
2018-12-30T14:11:39.962Z,102839.91
2018-12-30T14:14:08.206Z,102831.46
2018-12-30T14:16:36.475Z,102831.09
2018-12-30T14:19:04.724Z,102834.00
2018-12-30T14:21:33.055Z,102835.31
2018-12-30T14:24:01.437Z,102839.92
2018-12-30T14:26:29.680Z,102837.42
2018-12-30T14:28:57.969Z,102833.11
2018-12-30T14:31:26.264Z,102832.52
2018-12-30T14:33:54.561Z,102833.87
2018-12-30T14:36:22.805Z,102820.31
2018-12-30T14:38:51.081Z,102825.72
2018-12-30T14:41:19.425Z,102823.31
2018-12-30T14:43:47.708Z,102824.62
2018-12-30T14:46:15.957Z,102846.00
2018-12-30T14:48:44.261Z,102842.99
2018-12-30T14:51:12.506Z,102837.55
2018-12-30T14:53:40.746Z,102826.44
2018-12-30T14:56:09.054Z,102809.63
2018-12-30T14:58:37.305Z,102805.34
2018-12-30T15:01:05.558Z,102809.11
2018-12-30T15:03:33.845Z,102811.27
2018-12-30T15:06:02.124Z,102811.52
2018-12-30T15:08:30.381Z,102809.63
2018-12-30T15:10:58.693Z,102799.34
2018-12-30T15:13:26.986Z,102798.55
2018-12-30T15:15:55.220Z,102800.91
2018-12-30T15:18:23.501Z,102791.45
2018-12-30T15:20:52.628Z,102791.20
2018-12-30T15:23:20.904Z,102795.00
2018-12-30T15:25:49.258Z,102795.84
2018-12-30T15:28:17.538Z,102794.11
2018-12-30T15:30:45.822Z,102801.92
2018-12-30T15:33:14.092Z,102794.36
2018-12-30T15:35:42.799Z,102796.77
2018-12-30T15:38:11.076Z,102802.72
2018-12-30T15:40:39.323Z,102798.63
2018-12-30T15:43:08.480Z,102802.39
2018-12-30T15:45:36.726Z,102812.09
2018-12-30T15:48:05.112Z,102813.97
2018-12-30T15:50:33.421Z,102816.16
2018-12-30T15:53:01.668Z,102812.34
2018-12-30T15:55:29.958Z,102809.22
2018-12-30T15:57:58.231Z,102808.67
2018-12-30T16:00:26.535Z,102811.16
2018-12-30T16:02:54.779Z,102819.69
2018-12-30T16:05:23.239Z,102813.98
2018-12-30T16:07:51.467Z,102812.63
2018-12-30T16:10:19.785Z,102801.56
2018-12-30T16:12:48.050Z,102806.58
2018-12-30T16:15:16.304Z,102813.29
2018-12-30T16:17:44.596Z,102820.80
2018-12-30T16:20:12.874Z,102812.34
2018-12-30T16:22:41.157Z,102812.59
2018-12-30T16:25:09.480Z,102818.15
2018-12-30T16:27:37.739Z,102817.60
2018-12-30T16:30:08.420Z,102819.25
2018-12-30T16:32:36.736Z,102823.55
2018-12-30T16:35:05.074Z,102829.72
2018-12-30T16:37:33.454Z,102828.95
2018-12-30T16:40:01.705Z,102824.61
2018-12-30T16:42:29.965Z,102836.00
2018-12-30T16:44:58.262Z,102832.52
2018-12-30T16:47:26.567Z,102822.55
2018-12-30T16:49:54.915Z,102808.73
2018-12-30T16:52:23.167Z,102809.55
2018-12-30T16:54:51.454Z,102805.80
2018-12-30T16:57:19.827Z,102803.84
2018-12-30T16:59:48.981Z,102805.80
2018-12-30T17:02:17.281Z,102810.39
2018-12-30T17:04:45.626Z,102809.25
2018-12-30T17:07:14.005Z,102811.69
2018-12-30T17:09:42.253Z,102802.99
2018-12-30T17:12:10.540Z,102813.04
2018-12-30T17:14:38.799Z,102801.69
2018-12-30T17:17:07.090Z,102793.04
2018-12-30T17:19:35.337Z,102797.09
2018-12-30T17:22:03.639Z,102793.04
2018-12-30T17:24:32.536Z,102790.54
2018-12-30T17:27:00.830Z,102786.69
2018-12-30T17:29:29.171Z,102791.80
2018-12-30T17:31:57.459Z,102796.64
2018-12-30T17:34:25.823Z,102800.15
2018-12-30T17:36:54.123Z,102810.44
2018-12-30T17:39:22.400Z,102813.41
2018-12-30T17:41:50.662Z,102807.20
2018-12-30T17:44:19.660Z,102803.95
2018-12-30T17:46:47.940Z,102795.63
2018-12-30T17:49:16.251Z,102797.20
2018-12-30T17:51:47.516Z,102794.80
2018-12-30T17:54:15.772Z,102798.59
2018-12-30T17:56:44.941Z,102801.03
2018-12-30T17:59:13.221Z,102802.14
2018-12-30T18:01:41.531Z,102798.09
2018-12-30T18:04:09.814Z,102803.19
2018-12-30T18:06:38.075Z,102796.44
2018-12-30T18:09:06.437Z,102790.74
2018-12-30T18:11:34.769Z,102792.39
2018-12-30T18:14:03.051Z,102786.44
2018-12-30T18:16:31.325Z,102775.37
2018-12-30T18:18:59.624Z,102768.38
2018-12-30T18:21:27.882Z,102776.48
2018-12-30T18:23:56.348Z,102778.13
2018-12-30T18:26:24.640Z,102781.88
2018-12-30T18:28:52.901Z,102784.62
2018-12-30T18:31:21.214Z,102795.43
2018-12-30T18:33:49.499Z,102807.34
2018-12-30T18:36:17.826Z,102810.05
2018-12-30T18:38:46.080Z,102812.50
2018-12-30T18:41:14.451Z,102819.25
2018-12-30T18:43:42.716Z,102817.95
2018-12-30T18:46:11.008Z,102810.19
2018-12-30T18:48:39.317Z,102810.19
2018-12-30T18:51:08.439Z,102816.64
2018-12-30T18:53:36.751Z,102823.95
2018-12-30T18:56:06.883Z,102820.74
2018-12-30T18:58:35.107Z,102825.36
2018-12-30T19:01:03.457Z,102824.84
2018-12-30T19:03:31.708Z,102821.30
2018-12-30T19:06:00.411Z,102823.25
2018-12-30T19:08:28.702Z,102821.90
2018-12-30T19:10:56.961Z,102821.09
2018-12-30T19:13:25.329Z,102819.48
2018-12-30T19:15:53.580Z,102821.35
2018-12-30T19:18:21.938Z,102828.11
2018-12-30T19:20:50.190Z,102822.44
2018-12-30T19:23:18.456Z,102814.03
2018-12-30T19:25:46.747Z,102820.80
2018-12-30T19:28:15.057Z,102819.44
2018-12-30T19:30:43.388Z,102815.90
2018-12-30T19:33:11.673Z,102804.04
2018-12-30T19:35:40.056Z,102812.14
2018-12-30T19:38:08.327Z,102802.69
2018-12-30T19:40:36.641Z,102793.52
2018-12-30T19:43:05.040Z,102800.58
2018-12-30T19:45:33.382Z,102795.73
2018-12-30T19:48:02.611Z,102793.32
2018-12-30T19:50:30.964Z,102782.27
2018-12-30T19:52:59.292Z,102784.71
2018-12-30T19:55:27.563Z,102782.30
2018-12-30T19:57:56.274Z,102783.36
2018-12-30T20:00:24.899Z,102790.95
2018-12-30T20:02:54.442Z,102793.12
2018-12-30T20:05:22.966Z,102780.95
2018-12-30T20:07:55.030Z,102788.81
2018-12-30T20:10:23.478Z,102778.00
2018-12-30T20:12:51.978Z,102785.01
2018-12-30T20:15:21.030Z,102781.25
2018-12-30T20:17:49.452Z,102780.70
2018-12-30T20:20:18.047Z,102773.70
2018-12-30T20:22:46.963Z,102779.65
2018-12-30T20:25:15.495Z,102779.40
2018-12-30T20:27:43.932Z,102779.69
2018-12-30T20:30:12.497Z,102783.45
2018-12-30T20:32:41.010Z,102788.05
2018-12-30T20:35:09.405Z,102789.15
2018-12-30T20:37:37.877Z,102794.55
2018-12-30T20:40:06.410Z,102786.20
2018-12-30T20:42:34.668Z,102788.61
2018-12-30T20:45:03.071Z,102792.45
2018-12-30T20:47:31.341Z,102798.41
2018-12-30T20:50:00.243Z,102798.95
2018-12-30T20:52:28.553Z,102793.30
2018-12-30T20:54:56.902Z,102787.34
2018-12-30T20:57:26.982Z,102794.39
2018-12-30T20:59:55.291Z,102788.45
2018-12-30T21:02:24.084Z,102781.69
2018-12-30T21:04:55.441Z,102777.92
2018-12-30T21:07:23.771Z,102773.58
2018-12-30T21:09:52.448Z,102781.98
2018-12-30T21:12:20.753Z,102784.69
2018-12-30T21:14:49.121Z,102786.58
2018-12-30T21:17:17.458Z,102789.53
2018-12-30T21:19:45.874Z,102797.39
2018-12-30T21:22:14.134Z,102790.63
2018-12-30T21:24:42.442Z,102788.73
2018-12-30T21:27:10.743Z,102786.03
2018-12-30T21:29:39.027Z,102786.88
2018-12-30T21:32:10.065Z,102788.73
2018-12-30T21:34:38.427Z,102789.28
2018-12-30T21:37:09.152Z,102789.28
2018-12-30T21:39:37.462Z,102790.63
2018-12-30T21:42:05.751Z,102791.44
2018-12-30T21:44:34.147Z,102799.55
2018-12-30T21:47:02.479Z,102788.73
2018-12-30T21:49:30.792Z,102790.09
2018-12-30T21:51:59.070Z,102785.48
2018-12-30T21:54:27.407Z,102795.75
2018-12-30T21:56:55.697Z,102801.70
2018-12-30T21:59:23.974Z,102793.59
2018-12-30T22:01:52.356Z,102798.70
2018-12-30T22:04:20.631Z,102805.70
2018-12-30T22:06:48.927Z,102798.41
2018-12-30T22:09:17.367Z,102802.70
2018-12-30T22:11:45.656Z,102797.85
2018-12-30T22:14:13.914Z,102802.70
2018-12-30T22:16:42.814Z,102805.41
2018-12-30T22:19:11.077Z,102796.50
2018-12-30T22:21:39.335Z,102802.66
2018-12-30T22:24:07.703Z,102798.91
2018-12-30T22:26:35.966Z,102797.85
2018-12-30T22:29:04.262Z,102800.81
2018-12-30T22:31:32.843Z,102805.95
2018-12-30T22:34:01.170Z,102791.05
2018-12-30T22:36:29.487Z,102799.96
2018-12-30T22:38:57.792Z,102790.80
2018-12-30T22:41:26.085Z,102791.86
2018-12-30T22:43:54.382Z,102794.27
2018-12-30T22:46:22.705Z,102796.67
2018-12-30T22:48:51.038Z,102800.17
2018-12-30T22:51:19.311Z,102800.71
2018-12-30T22:53:47.649Z,102796.66
2018-12-30T22:56:15.912Z,102800.97
2018-12-30T22:58:44.224Z,102799.11
2018-12-30T23:01:12.850Z,102797.46
2018-12-30T23:03:41.362Z,102793.70
2018-12-30T23:06:09.619Z,102793.70
2018-12-30T23:08:37.891Z,102791.81
2018-12-30T23:11:06.207Z,102790.16
2018-12-30T23:13:34.517Z,102793.16
2018-12-30T23:16:02.923Z,102796.41
2018-12-30T23:18:31.213Z,102787.20
2018-12-30T23:20:59.518Z,102793.41
2018-12-30T23:23:27.898Z,102801.81
2018-12-30T23:25:56.233Z,102805.32
2018-12-30T23:28:24.493Z,102797.51
2018-12-30T23:30:52.894Z,102799.92
2018-12-30T23:33:21.901Z,102799.63
2018-12-30T23:35:50.607Z,102792.91
2018-12-30T23:38:18.914Z,102795.61
2018-12-30T23:40:47.248Z,102799.96
2018-12-30T23:43:15.520Z,102800.26
2018-12-30T23:45:43.977Z,102795.66
2018-12-30T23:48:12.748Z,102795.41
2018-12-30T23:50:41.308Z,102796.25
2018-12-30T23:53:09.721Z,102796.51
2018-12-30T23:55:38.103Z,102797.91
2018-12-30T23:58:09.383Z,102806.02
